EZY76FD EGCC-EGHQ
Flight info
| Callsign | EZY76FD |
|---|---|
| Flight time | 0h 53m |
| Altitude | 30000 |
| Route | ASMIM DCT NOKIN P17 ZESPE N92 EXMOR |
| Aircraft | A320/M-SDE2E3FGHIJ1RWXYZ/LB1 |
Departure
| Time | 2026-05-09 21:13 |
|---|---|
| Airport | Manchester Airport (EGCC) |
Arrival
| Time | 2026-05-09 22:07 |
|---|---|
| Airport | Cornwall Airport Newquay (EGHQ) |
| Time | Latitude | Longitude | Altitude | Speed | Heading |
|---|---|---|---|---|---|
| 2026-05-09 20:38 | 53.35936 | -2.27401 | 255 ft | 0 kts | 275° |
| 2026-05-09 21:04 | 53.35935 | -2.27386 | 255 ft | 3 kts | 275° |
| 2026-05-09 21:04 | 53.35933 | -2.27354 | 255 ft | 3 kts | 268° |
| 2026-05-09 21:05 | 53.35936 | -2.27328 | 255 ft | 3 kts | 216° |
| 2026-05-09 21:05 | 53.35946 | -2.27321 | 255 ft | 1 kts | 179° |
| 2026-05-09 21:05 | 53.35960 | -2.27321 | 255 ft | 2 kts | 179° |
| 2026-05-09 21:05 | 53.35964 | -2.27321 | 255 ft | 0 kts | 179° |
| 2026-05-09 21:08 | 53.35900 | -2.27320 | 255 ft | 13 kts | 179° |
| 2026-05-09 21:08 | 53.35827 | -2.27318 | 255 ft | 9 kts | 179° |
| 2026-05-09 21:09 | 53.35775 | -2.27352 | 255 ft | 8 kts | 220° |
| 2026-05-09 21:09 | 53.35724 | -2.27454 | 255 ft | 20 kts | 231° |
| 2026-05-09 21:09 | 53.35639 | -2.27624 | 255 ft | 19 kts | 227° |
| 2026-05-09 21:09 | 53.35542 | -2.27777 | 250 ft | 20 kts | 223° |
| 2026-05-09 21:10 | 53.35440 | -2.27943 | 245 ft | 21 kts | 226° |
| 2026-05-09 21:10 | 53.35315 | -2.28145 | 239 ft | 24 kts | 232° |
| 2026-05-09 21:10 | 53.35191 | -2.28387 | 232 ft | 29 kts | 230° |
| 2026-05-09 21:10 | 53.35063 | -2.28651 | 224 ft | 30 kts | 231° |
| 2026-05-09 21:11 | 53.34971 | -2.28751 | 220 ft | 14 kts | 180° |
| 2026-05-09 21:12 | 53.34890 | -2.28639 | 223 ft | 1 kts | 140° |
| 2026-05-09 21:12 | 53.34872 | -2.28539 | 222 ft | 11 kts | 74° |
| 2026-05-09 21:12 | 53.34912 | -2.28452 | 225 ft | 9 kts | 47° |
| 2026-05-09 21:12 | 53.35021 | -2.28230 | 227 ft | 57 kts | 51° |
| 2026-05-09 21:13 | 53.35406 | -2.27430 | 252 ft | 117 kts | 51° |
| 2026-05-09 21:13 | 53.35987 | -2.26220 | 554 ft | 137 kts | 51° |
| 2026-05-09 21:13 | 53.36594 | -2.24974 | 1278 ft | 138 kts | 51° |
| 2026-05-09 21:13 | 53.37216 | -2.23709 | 1632 ft | 158 kts | 51° |
| 2026-05-09 21:14 | 53.37985 | -2.22124 | 1827 ft | 187 kts | 50° |
| 2026-05-09 21:14 | 53.39100 | -2.20776 | 2176 ft | 216 kts | 22° |
| 2026-05-09 21:14 | 53.40683 | -2.20733 | 2686 ft | 246 kts | 345° |
| 2026-05-09 21:14 | 53.42095 | -2.22492 | 3450 ft | 265 kts | 306° |
| 2026-05-09 21:15 | 53.42752 | -2.25365 | 4411 ft | 268 kts | 278° |
| 2026-05-09 21:15 | 53.42636 | -2.28433 | 5379 ft | 271 kts | 254° |
| 2026-05-09 21:15 | 53.41720 | -2.31219 | 6317 ft | 273 kts | 229° |
| 2026-05-09 21:15 | 53.40407 | -2.33469 | 7247 ft | 273 kts | 226° |
| 2026-05-09 21:16 | 53.39068 | -2.35714 | 8216 ft | 271 kts | 227° |
| 2026-05-09 21:16 | 53.37736 | -2.37953 | 9146 ft | 272 kts | 227° |
| 2026-05-09 21:16 | 53.36405 | -2.40193 | 10059 ft | 273 kts | 227° |
| 2026-05-09 21:16 | 53.35048 | -2.42479 | 10632 ft | 285 kts | 227° |
| 2026-05-09 21:17 | 53.33596 | -2.44931 | 10885 ft | 307 kts | 227° |
| 2026-05-09 21:17 | 53.32070 | -2.47508 | 11477 ft | 315 kts | 227° |
| 2026-05-09 21:17 | 53.30512 | -2.50133 | 12188 ft | 320 kts | 227° |
| 2026-05-09 21:17 | 53.28935 | -2.52787 | 12900 ft | 324 kts | 227° |
| 2026-05-09 21:18 | 53.27338 | -2.55472 | 13640 ft | 328 kts | 227° |
| 2026-05-09 21:18 | 53.25720 | -2.58189 | 14293 ft | 332 kts | 227° |
| 2026-05-09 21:18 | 53.24080 | -2.60937 | 14910 ft | 336 kts | 227° |
| 2026-05-09 21:18 | 53.22426 | -2.63704 | 15597 ft | 337 kts | 227° |
| 2026-05-09 21:19 | 53.17408 | -2.72080 | 17597 ft | 343 kts | 227° |
| 2026-05-09 21:19 | 53.15719 | -2.74906 | 18262 ft | 345 kts | 227° |
| 2026-05-09 21:20 | 53.14017 | -2.77745 | 18862 ft | 347 kts | 227° |
| 2026-05-09 21:20 | 53.12306 | -2.80590 | 19420 ft | 349 kts | 227° |
| 2026-05-09 21:20 | 53.10527 | -2.83371 | 19965 ft | 353 kts | 220° |
| 2026-05-09 21:20 | 53.08418 | -2.85526 | 20512 ft | 360 kts | 207° |
| 2026-05-09 21:21 | 53.06012 | -2.86797 | 21062 ft | 367 kts | 193° |
| 2026-05-09 21:21 | 53.03438 | -2.87070 | 21604 ft | 376 kts | 180° |
| 2026-05-09 21:21 | 53.00823 | -2.86452 | 22153 ft | 381 kts | 174° |
| 2026-05-09 21:21 | 52.98217 | -2.85734 | 22688 ft | 384 kts | 175° |
| 2026-05-09 21:22 | 52.95550 | -2.84999 | 23192 ft | 387 kts | 174° |
| 2026-05-09 21:22 | 52.92882 | -2.84265 | 23688 ft | 390 kts | 174° |
| 2026-05-09 21:22 | 52.90190 | -2.83533 | 24116 ft | 393 kts | 174° |
| 2026-05-09 21:22 | 52.87483 | -2.82809 | 24538 ft | 395 kts | 174° |
| 2026-05-09 21:23 | 52.84759 | -2.82084 | 24949 ft | 398 kts | 174° |
| 2026-05-09 21:23 | 52.82020 | -2.81354 | 25347 ft | 400 kts | 174° |
| 2026-05-09 21:23 | 52.79264 | -2.80617 | 25760 ft | 402 kts | 174° |
| 2026-05-09 21:23 | 52.76492 | -2.79871 | 26151 ft | 404 kts | 174° |
| 2026-05-09 21:24 | 52.73706 | -2.79120 | 26532 ft | 407 kts | 174° |
| 2026-05-09 21:24 | 52.70910 | -2.78366 | 26887 ft | 408 kts | 174° |
| 2026-05-09 21:24 | 52.68102 | -2.77610 | 27275 ft | 410 kts | 174° |
| 2026-05-09 21:24 | 52.65280 | -2.76853 | 27645 ft | 412 kts | 174° |
| 2026-05-09 21:25 | 52.62448 | -2.76120 | 27993 ft | 413 kts | 176° |
| 2026-05-09 21:25 | 52.59588 | -2.75915 | 28348 ft | 411 kts | 185° |
| 2026-05-09 21:25 | 52.56726 | -2.76163 | 28697 ft | 412 kts | 186° |
| 2026-05-09 21:25 | 52.53857 | -2.76416 | 29036 ft | 414 kts | 186° |
| 2026-05-09 21:26 | 52.51010 | -2.76664 | 29372 ft | 416 kts | 186° |
| 2026-05-09 21:26 | 52.48110 | -2.76916 | 29686 ft | 417 kts | 186° |
| 2026-05-09 21:26 | 52.45209 | -2.77169 | 30042 ft | 419 kts | 186° |
| 2026-05-09 21:26 | 52.42300 | -2.77422 | 30173 ft | 415 kts | 186° |
| 2026-05-09 21:27 | 52.39474 | -2.77662 | 30183 ft | 399 kts | 186° |
| 2026-05-09 21:27 | 52.36724 | -2.77895 | 30189 ft | 394 kts | 186° |
| 2026-05-09 21:27 | 52.31277 | -2.78363 | 30174 ft | 391 kts | 186° |
| 2026-05-09 21:28 | 52.25848 | -2.78832 | 30178 ft | 391 kts | 186° |
| 2026-05-09 21:28 | 52.20418 | -2.79299 | 30171 ft | 391 kts | 186° |
| 2026-05-09 21:29 | 52.14986 | -2.79767 | 30166 ft | 391 kts | 186° |
| 2026-05-09 21:29 | 52.09552 | -2.80226 | 30163 ft | 391 kts | 186° |
| 2026-05-09 21:30 | 52.04119 | -2.80681 | 30152 ft | 391 kts | 186° |
| 2026-05-09 21:30 | 51.98684 | -2.81137 | 30140 ft | 390 kts | 186° |
| 2026-05-09 21:31 | 51.93261 | -2.81595 | 30195 ft | 390 kts | 186° |
| 2026-05-09 21:31 | 51.87843 | -2.82066 | 30214 ft | 389 kts | 186° |
| 2026-05-09 21:32 | 51.82453 | -2.82721 | 30226 ft | 388 kts | 189° |
| 2026-05-09 21:32 | 51.77114 | -2.83902 | 30223 ft | 387 kts | 191° |
| 2026-05-09 21:33 | 51.71787 | -2.85182 | 30230 ft | 386 kts | 190° |
| 2026-05-09 21:33 | 51.66461 | -2.86368 | 30234 ft | 386 kts | 189° |
| 2026-05-09 21:34 | 51.61133 | -2.87494 | 30218 ft | 386 kts | 189° |
| 2026-05-09 21:34 | 51.55906 | -2.89265 | 30207 ft | 383 kts | 203° |
| 2026-05-09 21:35 | 51.51388 | -2.93656 | 30167 ft | 381 kts | 218° |
| 2026-05-09 21:35 | 51.47231 | -2.98959 | 30090 ft | 382 kts | 218° |
| 2026-05-09 21:36 | 51.43061 | -3.04248 | 30089 ft | 383 kts | 218° |
| 2026-05-09 21:36 | 51.38877 | -3.09541 | 30092 ft | 383 kts | 218° |
| 2026-05-09 21:37 | 51.34723 | -3.14793 | 30097 ft | 383 kts | 218° |
| 2026-05-09 21:37 | 51.30535 | -3.20081 | 30100 ft | 383 kts | 218° |
| 2026-05-09 21:38 | 51.26335 | -3.25354 | 30102 ft | 387 kts | 217° |
| 2026-05-09 21:38 | 51.24195 | -3.28031 | 29890 ft | 393 kts | 217° |
| 2026-05-09 21:38 | 51.22042 | -3.30722 | 29187 ft | 392 kts | 217° |
| 2026-05-09 21:39 | 51.19898 | -3.33406 | 28506 ft | 392 kts | 218° |
| 2026-05-09 21:39 | 51.17834 | -3.36201 | 28013 ft | 387 kts | 226° |
| 2026-05-09 21:39 | 51.16199 | -3.39564 | 27561 ft | 382 kts | 235° |
| 2026-05-09 21:39 | 51.14728 | -3.43065 | 27112 ft | 378 kts | 235° |
| 2026-05-09 21:40 | 51.13263 | -3.46505 | 26676 ft | 374 kts | 234° |
| 2026-05-09 21:40 | 51.11797 | -3.49894 | 26232 ft | 370 kts | 234° |
| 2026-05-09 21:40 | 51.10333 | -3.53241 | 25782 ft | 367 kts | 233° |
| 2026-05-09 21:40 | 51.08873 | -3.56558 | 25317 ft | 365 kts | 234° |
| 2026-05-09 21:41 | 51.07417 | -3.59849 | 24867 ft | 363 kts | 233° |
| 2026-05-09 21:41 | 51.05969 | -3.63120 | 24388 ft | 361 kts | 233° |
| 2026-05-09 21:41 | 51.04529 | -3.66379 | 23918 ft | 360 kts | 234° |
| 2026-05-09 21:41 | 51.03097 | -3.69629 | 23406 ft | 358 kts | 233° |
| 2026-05-09 21:42 | 51.01670 | -3.72862 | 22911 ft | 356 kts | 233° |
| 2026-05-09 21:42 | 51.00733 | -3.74985 | 22615 ft | 353 kts | 233° |
| 2026-05-09 21:42 | 50.99325 | -3.78162 | 22164 ft | 350 kts | 234° |
| 2026-05-09 21:42 | 50.97924 | -3.81320 | 21717 ft | 348 kts | 234° |
| 2026-05-09 21:43 | 50.96536 | -3.84443 | 21275 ft | 346 kts | 234° |
| 2026-05-09 21:43 | 50.95154 | -3.87550 | 20835 ft | 344 kts | 234° |
| 2026-05-09 21:43 | 50.93780 | -3.90637 | 20398 ft | 342 kts | 234° |
| 2026-05-09 21:43 | 50.92415 | -3.93705 | 19976 ft | 340 kts | 234° |
| 2026-05-09 21:44 | 50.91055 | -3.96758 | 19549 ft | 338 kts | 234° |
| 2026-05-09 21:44 | 50.89701 | -3.99798 | 19130 ft | 337 kts | 234° |
| 2026-05-09 21:44 | 50.88351 | -4.02823 | 18714 ft | 336 kts | 234° |
| 2026-05-09 21:44 | 50.87004 | -4.05838 | 18289 ft | 335 kts | 234° |
| 2026-05-09 21:45 | 50.85662 | -4.08840 | 17851 ft | 333 kts | 234° |
| 2026-05-09 21:45 | 50.84330 | -4.11816 | 17447 ft | 330 kts | 234° |
| 2026-05-09 21:45 | 50.83007 | -4.14769 | 17044 ft | 328 kts | 234° |
| 2026-05-09 21:45 | 50.81691 | -4.17697 | 16658 ft | 325 kts | 234° |
| 2026-05-09 21:46 | 50.80384 | -4.20600 | 16279 ft | 323 kts | 234° |
| 2026-05-09 21:46 | 50.78849 | -4.23149 | 15894 ft | 320 kts | 217° |
| 2026-05-09 21:46 | 50.77067 | -4.25186 | 15705 ft | 313 kts | 216° |
| 2026-05-09 21:46 | 50.75332 | -4.27240 | 15357 ft | 310 kts | 216° |
| 2026-05-09 21:47 | 50.73574 | -4.29184 | 15043 ft | 308 kts | 215° |
| 2026-05-09 21:47 | 50.71823 | -4.31094 | 14718 ft | 304 kts | 215° |
| 2026-05-09 21:47 | 50.70092 | -4.32982 | 14098 ft | 301 kts | 215° |
| 2026-05-09 21:47 | 50.68373 | -4.34858 | 13406 ft | 300 kts | 215° |
| 2026-05-09 21:48 | 50.66665 | -4.36730 | 12708 ft | 298 kts | 214° |
| 2026-05-09 21:48 | 50.64971 | -4.38601 | 12014 ft | 297 kts | 214° |
| 2026-05-09 21:48 | 50.63287 | -4.40478 | 11319 ft | 296 kts | 214° |
| 2026-05-09 21:48 | 50.61607 | -4.42363 | 10633 ft | 296 kts | 215° |
| 2026-05-09 21:49 | 50.59938 | -4.44243 | 10022 ft | 293 kts | 214° |
| 2026-05-09 21:49 | 50.58289 | -4.46121 | 9339 ft | 292 kts | 214° |
| 2026-05-09 21:49 | 50.56667 | -4.47988 | 8914 ft | 280 kts | 214° |
| 2026-05-09 21:49 | 50.55155 | -4.49744 | 8713 ft | 263 kts | 214° |
| 2026-05-09 21:50 | 50.53700 | -4.51435 | 8257 ft | 257 kts | 215° |
| 2026-05-09 21:50 | 50.52274 | -4.53093 | 7737 ft | 254 kts | 214° |
| 2026-05-09 21:50 | 50.49472 | -4.56421 | 6648 ft | 251 kts | 214° |
| 2026-05-09 21:51 | 50.48113 | -4.58065 | 6117 ft | 249 kts | 215° |
| 2026-05-09 21:51 | 50.46747 | -4.59719 | 5559 ft | 247 kts | 215° |
| 2026-05-09 21:51 | 50.45389 | -4.61366 | 5015 ft | 246 kts | 215° |
| 2026-05-09 21:51 | 50.44034 | -4.63007 | 4456 ft | 246 kts | 215° |
| 2026-05-09 21:52 | 50.42678 | -4.64645 | 3868 ft | 246 kts | 215° |
| 2026-05-09 21:52 | 50.41320 | -4.66283 | 3296 ft | 246 kts | 215° |
| 2026-05-09 21:52 | 50.39961 | -4.67912 | 2761 ft | 246 kts | 214° |
| 2026-05-09 21:52 | 50.38603 | -4.69543 | 2521 ft | 246 kts | 215° |
| 2026-05-09 21:53 | 50.37303 | -4.71307 | 2488 ft | 250 kts | 229° |
| 2026-05-09 21:53 | 50.36414 | -4.73622 | 2492 ft | 244 kts | 251° |
| 2026-05-09 21:53 | 50.36097 | -4.76122 | 2490 ft | 226 kts | 272° |
| 2026-05-09 21:54 | 50.36903 | -4.80578 | 2513 ft | 203 kts | 306° |
| 2026-05-09 21:54 | 50.37586 | -4.82382 | 2524 ft | 184 kts | 307° |
| 2026-05-09 21:54 | 50.38211 | -4.84032 | 2481 ft | 169 kts | 309° |
| 2026-05-09 21:54 | 50.38799 | -4.85580 | 2510 ft | 161 kts | 309° |
| 2026-05-09 21:55 | 50.39371 | -4.87084 | 2472 ft | 160 kts | 309° |
| 2026-05-09 21:55 | 50.39935 | -4.88585 | 2175 ft | 158 kts | 308° |
| 2026-05-09 21:55 | 50.40479 | -4.90052 | 1831 ft | 155 kts | 310° |
| 2026-05-09 21:55 | 50.41022 | -4.91486 | 1487 ft | 151 kts | 310° |
| 2026-05-09 21:56 | 50.41553 | -4.92861 | 1240 ft | 150 kts | 310° |
| 2026-05-09 21:56 | 50.42092 | -4.94272 | 1004 ft | 147 kts | 307° |
| 2026-05-09 21:56 | 50.42598 | -4.95618 | 792 ft | 142 kts | 308° |
| 2026-05-09 21:56 | 50.43100 | -4.96953 | 583 ft | 138 kts | 309° |
| 2026-05-09 21:57 | 50.43581 | -4.98228 | 457 ft | 138 kts | 308° |
| 2026-05-09 21:57 | 50.44062 | -4.99535 | 510 ft | 145 kts | 306° |
| 2026-05-09 21:57 | 50.44637 | -5.01022 | 1018 ft | 174 kts | 308° |
| 2026-05-09 21:57 | 50.45351 | -5.02869 | 1195 ft | 224 kts | 306° |
| 2026-05-09 21:58 | 50.46233 | -5.05078 | 1689 ft | 245 kts | 308° |
| 2026-05-09 21:58 | 50.47161 | -5.07317 | 2588 ft | 242 kts | 308° |
| 2026-05-09 21:58 | 50.48080 | -5.09490 | 2884 ft | 241 kts | 308° |
| 2026-05-09 21:58 | 50.49087 | -5.11573 | 2986 ft | 236 kts | 324° |
| 2026-05-09 21:59 | 50.50491 | -5.12686 | 3010 ft | 223 kts | 357° |
| 2026-05-09 21:59 | 50.51971 | -5.12401 | 2998 ft | 212 kts | 30° |
| 2026-05-09 21:59 | 50.53025 | -5.10874 | 3003 ft | 207 kts | 64° |
| 2026-05-09 21:59 | 50.53344 | -5.08712 | 3007 ft | 204 kts | 86° |
| 2026-05-09 22:00 | 50.53350 | -5.06488 | 2998 ft | 204 kts | 89° |
| 2026-05-09 22:00 | 50.53313 | -5.04243 | 3012 ft | 206 kts | 89° |
| 2026-05-09 22:00 | 50.53266 | -5.01996 | 3004 ft | 206 kts | 90° |
| 2026-05-09 22:00 | 50.53216 | -4.99748 | 3013 ft | 205 kts | 90° |
| 2026-05-09 22:01 | 50.53165 | -4.97513 | 3016 ft | 204 kts | 90° |
| 2026-05-09 22:01 | 50.52923 | -4.95314 | 3009 ft | 209 kts | 109° |
| 2026-05-09 22:01 | 50.52201 | -4.93301 | 2972 ft | 213 kts | 120° |
| 2026-05-09 22:01 | 50.51338 | -4.91404 | 2666 ft | 213 kts | 121° |
| 2026-05-09 22:02 | 50.50459 | -4.89565 | 2520 ft | 209 kts | 121° |
| 2026-05-09 22:02 | 50.49573 | -4.87748 | 2510 ft | 210 kts | 122° |
| 2026-05-09 22:02 | 50.48684 | -4.85922 | 2507 ft | 211 kts | 122° |
| 2026-05-09 22:02 | 50.47795 | -4.84086 | 2515 ft | 211 kts | 122° |
| 2026-05-09 22:03 | 50.46781 | -4.82416 | 2507 ft | 215 kts | 143° |
| 2026-05-09 22:03 | 50.45361 | -4.81848 | 2503 ft | 215 kts | 180° |
| 2026-05-09 22:03 | 50.43904 | -4.82441 | 2516 ft | 217 kts | 196° |
| 2026-05-09 22:03 | 50.42523 | -4.83290 | 2311 ft | 212 kts | 196° |
| 2026-05-09 22:04 | 50.41222 | -4.84266 | 2057 ft | 197 kts | 214° |
| 2026-05-09 22:04 | 50.40456 | -4.85838 | 2193 ft | 177 kts | 253° |
| 2026-05-09 22:04 | 50.40316 | -4.87687 | 2001 ft | 169 kts | 276° |
| 2026-05-09 22:04 | 50.40421 | -4.89529 | 1600 ft | 165 kts | 288° |
| 2026-05-09 22:05 | 50.40813 | -4.91115 | 1357 ft | 149 kts | 309° |
| 2026-05-09 22:05 | 50.41348 | -4.92510 | 1157 ft | 148 kts | 311° |
| 2026-05-09 22:05 | 50.41914 | -4.93804 | 1054 ft | 146 kts | 308° |
| 2026-05-09 22:05 | 50.42437 | -4.95191 | 866 ft | 146 kts | 306° |
| 2026-05-09 22:06 | 50.42904 | -4.96519 | 635 ft | 137 kts | 311° |
| 2026-05-09 22:06 | 50.43412 | -4.97769 | 505 ft | 136 kts | 307° |
| 2026-05-09 22:06 | 50.43895 | -4.99046 | 374 ft | 131 kts | 308° |
| 2026-05-09 22:06 | 50.44310 | -5.00127 | 346 ft | 87 kts | 299° |
| 2026-05-09 22:07 | 50.44505 | -5.00653 | 327 ft | 32 kts | 300° |
| 2026-05-09 22:07 | 50.44619 | -5.00966 | 319 ft | 34 kts | 301° |
| 2026-05-09 22:07 | 50.44713 | -5.01144 | 314 ft | 17 kts | 337° |
| 2026-05-09 22:07 | 50.44797 | -5.01052 | 316 ft | 13 kts | 61° |
| 2026-05-09 22:08 | 50.44802 | -5.00920 | 319 ft | 12 kts | 110° |
| 2026-05-09 22:08 | 50.44766 | -5.00824 | 321 ft | 8 kts | 122° |
| 2026-05-09 22:08 | 50.44744 | -5.00767 | 322 ft | 4 kts | 121° |
| 2026-05-09 22:08 | 50.44702 | -5.00657 | 323 ft | 17 kts | 121° |
| 2026-05-09 22:09 | 50.44673 | -5.00572 | 326 ft | 6 kts | 105° |
| 2026-05-09 22:09 | 50.44673 | -5.00529 | 327 ft | 3 kts | 82° |
| 2026-05-09 22:09 | 50.44678 | -5.00495 | 331 ft | 1 kts | 77° |
| 2026-05-09 22:09 | 50.44684 | -5.00460 | 331 ft | 2 kts | 75° |
| 2026-05-09 22:10 | 50.44684 | -5.00457 | 331 ft | 0 kts | 75° |